sensor_id;sensor_type;location;lat;lon;timestamp;P1;durP1;ratioP1;P2;durP2;ratioP2
63818;SDS011;49970;54.976;73.248;2023-02-02T00:01:26;127.43;;;52.58;;
63818;SDS011;49970;54.976;73.248;2023-02-02T00:03:57;145.80;;;52.67;;
63818;SDS011;49970;54.976;73.248;2023-02-02T00:06:25;150.23;;;57.28;;
63818;SDS011;49970;54.976;73.248;2023-02-02T00:08:54;185.02;;;72.05;;
63818;SDS011;49970;54.976;73.248;2023-02-02T00:11:22;154.50;;;70.57;;
63818;SDS011;49970;54.976;73.248;2023-02-02T00:13:49;178.10;;;75.72;;
63818;SDS011;49970;54.976;73.248;2023-02-02T00:19:25;179.20;;;71.53;;
63818;SDS011;49970;54.976;73.248;2023-02-02T00:22:01;171.32;;;72.78;;
63818;SDS011;49970;54.976;73.248;2023-02-02T00:24:28;183.10;;;72.07;;
63818;SDS011;49970;54.976;73.248;2023-02-02T00:26:55;187.77;;;76.18;;
63818;SDS011;49970;54.976;73.248;2023-02-02T00:29:29;154.57;;;69.88;;
63818;SDS011;49970;54.976;73.248;2023-02-02T00:32:00;169.30;;;67.63;;
63818;SDS011;49970;54.976;73.248;2023-02-02T00:34:27;165.48;;;68.10;;
63818;SDS011;49970;54.976;73.248;2023-02-02T00:36:53;164.80;;;65.75;;
63818;SDS011;49970;54.976;73.248;2023-02-02T00:39:24;162.15;;;62.83;;
63818;SDS011;49970;54.976;73.248;2023-02-02T00:41:51;153.00;;;62.67;;
63818;SDS011;49970;54.976;73.248;2023-02-02T00:44:17;152.05;;;58.60;;
63818;SDS011;49970;54.976;73.248;2023-02-02T00:47:09;149.43;;;62.70;;
63818;SDS011;49970;54.976;73.248;2023-02-02T00:49:46;163.82;;;63.33;;
63818;SDS011;49970;54.976;73.248;2023-02-02T00:52:13;151.70;;;62.10;;
63818;SDS011;49970;54.976;73.248;2023-02-02T00:54:49;167.65;;;67.00;;
63818;SDS011;49970;54.976;73.248;2023-02-02T00:57:16;161.27;;;68.88;;
63818;SDS011;49970;54.976;73.248;2023-02-02T00:59:52;170.23;;;68.18;;
63818;SDS011;49970;54.976;73.248;2023-02-02T01:02:29;182.25;;;75.18;;
63818;SDS011;49970;54.976;73.248;2023-02-02T01:05:05;177.63;;;70.88;;
63818;SDS011;49970;54.976;73.248;2023-02-02T01:07:32;179.38;;;71.53;;
63818;SDS011;49970;54.976;73.248;2023-02-02T01:10:13;178.05;;;73.93;;
63818;SDS011;49970;54.976;73.248;2023-02-02T01:12:42;194.35;;;84.28;;
63818;SDS011;49970;54.976;73.248;2023-02-02T01:15:09;222.63;;;89.72;;
63818;SDS011;49970;54.976;73.248;2023-02-02T01:17:37;260.27;;;104.60;;
63818;SDS011;49970;54.976;73.248;2023-02-02T01:20:10;305.65;;;122.60;;
63818;SDS011;49970;54.976;73.248;2023-02-02T01:22:41;256.20;;;103.30;;
63818;SDS011;49970;54.976;73.248;2023-02-02T01:25:12;250.55;;;103.97;;
63818;SDS011;49970;54.976;73.248;2023-02-02T01:27:44;245.05;;;103.55;;
63818;SDS011;49970;54.976;73.248;2023-02-02T01:30:10;236.40;;;103.90;;
63818;SDS011;49970;54.976;73.248;2023-02-02T01:32:42;257.98;;;105.43;;
63818;SDS011;49970;54.976;73.248;2023-02-02T01:35:08;228.65;;;103.45;;
63818;SDS011;49970;54.976;73.248;2023-02-02T01:37:35;242.82;;;104.47;;
63818;SDS011;49970;54.976;73.248;2023-02-02T01:40:01;245.30;;;107.38;;
63818;SDS011;49970;54.976;73.248;2023-02-02T01:42:28;250.82;;;116.43;;
63818;SDS011;49970;54.976;73.248;2023-02-02T01:45:04;246.57;;;113.40;;
63818;SDS011;49970;54.976;73.248;2023-02-02T01:47:55;257.95;;;114.95;;
63818;SDS011;49970;54.976;73.248;2023-02-02T01:50:26;261.50;;;117.57;;
63818;SDS011;49970;54.976;73.248;2023-02-02T01:52:55;241.30;;;111.10;;
63818;SDS011;49970;54.976;73.248;2023-02-02T01:55:26;260.45;;;116.78;;
63818;SDS011;49970;54.976;73.248;2023-02-02T01:59:17;270.13;;;117.70;;
63818;SDS011;49970;54.976;73.248;2023-02-02T02:01:45;264.40;;;119.60;;
63818;SDS011;49970;54.976;73.248;2023-02-02T02:04:12;279.80;;;121.30;;
63818;SDS011;49970;54.976;73.248;2023-02-02T02:06:39;276.75;;;126.70;;
63818;SDS011;49970;54.976;73.248;2023-02-02T02:09:07;275.75;;;123.68;;
63818;SDS011;49970;54.976;73.248;2023-02-02T02:11:33;284.88;;;126.53;;
63818;SDS011;49970;54.976;73.248;2023-02-02T02:14:05;271.50;;;125.88;;
63818;SDS011;49970;54.976;73.248;2023-02-02T02:17:13;255.75;;;115.85;;
63818;SDS011;49970;54.976;73.248;2023-02-02T02:29:38;260.83;;;113.22;;
63818;SDS011;49970;54.976;73.248;2023-02-02T02:38:44;263.48;;;119.57;;
63818;SDS011;49970;54.976;73.248;2023-02-02T02:41:20;312.60;;;132.23;;
63818;SDS011;49970;54.976;73.248;2023-02-02T02:43:58;307.67;;;134.05;;
63818;SDS011;49970;54.976;73.248;2023-02-02T02:46:34;313.40;;;139.52;;
63818;SDS011;49970;54.976;73.248;2023-02-02T02:49:01;313.38;;;138.98;;
63818;SDS011;49970;54.976;73.248;2023-02-02T02:54:35;344.63;;;147.57;;
63818;SDS011;49970;54.976;73.248;2023-02-02T03:02:47;310.83;;;139.60;;
63818;SDS011;49970;54.976;73.248;2023-02-02T03:10:34;283.52;;;126.68;;
63818;SDS011;49970;54.976;73.248;2023-02-02T03:13:07;283.55;;;123.03;;
63818;SDS011;49970;54.976;73.248;2023-02-02T03:15:45;266.63;;;116.30;;
63818;SDS011;49970;54.976;73.248;2023-02-02T03:18:12;269.02;;;120.75;;
63818;SDS011;49970;54.976;73.248;2023-02-02T03:20:41;268.92;;;120.65;;
63818;SDS011;49970;54.976;73.248;2023-02-02T03:23:09;276.95;;;122.20;;
63818;SDS011;49970;54.976;73.248;2023-02-02T03:25:36;250.05;;;121.55;;
63818;SDS011;49970;54.976;73.248;2023-02-02T03:28:09;286.92;;;126.25;;
63818;SDS011;49970;54.976;73.248;2023-02-02T03:30:36;280.20;;;123.88;;
63818;SDS011;49970;54.976;73.248;2023-02-02T03:33:04;281.23;;;117.53;;
63818;SDS011;49970;54.976;73.248;2023-02-02T03:35:32;283.02;;;121.82;;
63818;SDS011;49970;54.976;73.248;2023-02-02T03:37:58;283.73;;;122.65;;
63818;SDS011;49970;54.976;73.248;2023-02-02T03:40:29;289.23;;;126.72;;
63818;SDS011;49970;54.976;73.248;2023-02-02T03:43:05;266.83;;;119.00;;
63818;SDS011;49970;54.976;73.248;2023-02-02T03:45:32;268.77;;;117.75;;
63818;SDS011;49970;54.976;73.248;2023-02-02T03:48:09;264.58;;;113.57;;
63818;SDS011;49970;54.976;73.248;2023-02-02T03:50:36;273.20;;;117.63;;
63818;SDS011;49970;54.976;73.248;2023-02-02T03:53:12;267.20;;;118.30;;
63818;SDS011;49970;54.976;73.248;2023-02-02T03:55:49;281.52;;;126.90;;
63818;SDS011;49970;54.976;73.248;2023-02-02T03:58:21;352.83;;;151.02;;
63818;SDS011;49970;54.976;73.248;2023-02-02T04:00:47;361.52;;;152.77;;
63818;SDS011;49970;54.976;73.248;2023-02-02T04:03:22;390.05;;;170.73;;
63818;SDS011;49970;54.976;73.248;2023-02-02T04:05:53;322.67;;;138.68;;
63818;SDS011;49970;54.976;73.248;2023-02-02T04:08:20;269.77;;;120.55;;
63818;SDS011;49970;54.976;73.248;2023-02-02T04:10:51;271.40;;;119.38;;
63818;SDS011;49970;54.976;73.248;2023-02-02T04:13:27;255.88;;;116.28;;
63818;SDS011;49970;54.976;73.248;2023-02-02T04:16:03;248.57;;;113.38;;
63818;SDS011;49970;54.976;73.248;2023-02-02T04:18:29;258.77;;;122.20;;
63818;SDS011;49970;54.976;73.248;2023-02-02T04:20:57;263.65;;;123.05;;
63818;SDS011;49970;54.976;73.248;2023-02-02T04:23:33;252.57;;;122.95;;
63818;SDS011;49970;54.976;73.248;2023-02-02T04:26:05;237.35;;;108.07;;
63818;SDS011;49970;54.976;73.248;2023-02-02T04:28:43;228.75;;;100.85;;
63818;SDS011;49970;54.976;73.248;2023-02-02T04:31:20;206.43;;;91.15;;
63818;SDS011;49970;54.976;73.248;2023-02-02T04:33:46;210.15;;;95.88;;
63818;SDS011;49970;54.976;73.248;2023-02-02T04:36:12;232.60;;;103.00;;
63818;SDS011;49970;54.976;73.248;2023-02-02T04:38:39;226.82;;;103.60;;
63818;SDS011;49970;54.976;73.248;2023-02-02T04:41:06;210.27;;;98.28;;
63818;SDS011;49970;54.976;73.248;2023-02-02T04:43:35;220.85;;;100.53;;
63818;SDS011;49970;54.976;73.248;2023-02-02T04:46:02;236.55;;;104.22;;
63818;SDS011;49970;54.976;73.248;2023-02-02T04:48:29;246.90;;;109.32;;
63818;SDS011;49970;54.976;73.248;2023-02-02T04:50:59;240.55;;;110.72;;
63818;SDS011;49970;54.976;73.248;2023-02-02T04:53:35;255.48;;;111.80;;
63818;SDS011;49970;54.976;73.248;2023-02-02T04:56:13;242.80;;;106.57;;
63818;SDS011;49970;54.976;73.248;2023-02-02T04:58:41;244.02;;;103.68;;
63818;SDS011;49970;54.976;73.248;2023-02-02T05:01:13;244.70;;;108.30;;
63818;SDS011;49970;54.976;73.248;2023-02-02T05:03:42;247.38;;;100.22;;
63818;SDS011;49970;54.976;73.248;2023-02-02T05:06:08;261.05;;;106.40;;
63818;SDS011;49970;54.976;73.248;2023-02-02T05:08:35;268.80;;;112.32;;
63818;SDS011;49970;54.976;73.248;2023-02-02T05:11:16;236.18;;;104.85;;
63818;SDS011;49970;54.976;73.248;2023-02-02T05:13:50;261.48;;;109.97;;
63818;SDS011;49970;54.976;73.248;2023-02-02T05:16:23;251.20;;;109.88;;
63818;SDS011;49970;54.976;73.248;2023-02-02T05:18:50;270.27;;;112.82;;
63818;SDS011;49970;54.976;73.248;2023-02-02T05:21:18;256.13;;;106.05;;
63818;SDS011;49970;54.976;73.248;2023-02-02T05:23:56;234.63;;;109.85;;
63818;SDS011;49970;54.976;73.248;2023-02-02T05:26:24;243.50;;;112.03;;
63818;SDS011;49970;54.976;73.248;2023-02-02T05:29:01;243.50;;;109.00;;
63818;SDS011;49970;54.976;73.248;2023-02-02T05:31:33;219.43;;;97.40;;
63818;SDS011;49970;54.976;73.248;2023-02-02T05:33:59;209.80;;;102.70;;
63818;SDS011;49970;54.976;73.248;2023-02-02T05:36:35;227.80;;;104.13;;
63818;SDS011;49970;54.976;73.248;2023-02-02T05:39:02;237.70;;;102.85;;
63818;SDS011;49970;54.976;73.248;2023-02-02T05:41:29;251.80;;;114.25;;
63818;SDS011;49970;54.976;73.248;2023-02-02T05:44:01;251.60;;;112.60;;
63818;SDS011;49970;54.976;73.248;2023-02-02T05:46:29;277.55;;;120.57;;
63818;SDS011;49970;54.976;73.248;2023-02-02T05:48:56;259.60;;;117.30;;
63818;SDS011;49970;54.976;73.248;2023-02-02T05:51:40;260.55;;;121.47;;
63818;SDS011;49970;54.976;73.248;2023-02-02T05:54:09;280.13;;;120.10;;
63818;SDS011;49970;54.976;73.248;2023-02-02T05:56:36;248.13;;;120.00;;
63818;SDS011;49970;54.976;73.248;2023-02-02T05:59:02;286.80;;;129.15;;
63818;SDS011;49970;54.976;73.248;2023-02-02T06:01:32;295.33;;;128.45;;
63818;SDS011;49970;54.976;73.248;2023-02-02T06:05:22;271.10;;;117.28;;
63818;SDS011;49970;54.976;73.248;2023-02-02T06:07:49;280.60;;;128.30;;
63818;SDS011;49970;54.976;73.248;2023-02-02T06:10:15;267.95;;;124.43;;
63818;SDS011;49970;54.976;73.248;2023-02-02T06:12:51;259.58;;;123.47;;
63818;SDS011;49970;54.976;73.248;2023-02-02T06:15:28;285.05;;;125.15;;
63818;SDS011;49970;54.976;73.248;2023-02-02T06:18:04;284.73;;;131.57;;
63818;SDS011;49970;54.976;73.248;2023-02-02T06:20:32;270.67;;;125.03;;
63818;SDS011;49970;54.976;73.248;2023-02-02T06:23:05;260.45;;;123.15;;
63818;SDS011;49970;54.976;73.248;2023-02-02T06:25:41;262.13;;;124.78;;
63818;SDS011;49970;54.976;73.248;2023-02-02T06:28:18;263.60;;;119.90;;
63818;SDS011;49970;54.976;73.248;2023-02-02T06:30:44;218.88;;;110.30;;
63818;SDS011;49970;54.976;73.248;2023-02-02T06:33:10;259.90;;;114.47;;
63818;SDS011;49970;54.976;73.248;2023-02-02T06:35:38;252.05;;;113.43;;
63818;SDS011;49970;54.976;73.248;2023-02-02T06:38:04;250.05;;;111.47;;
63818;SDS011;49970;54.976;73.248;2023-02-02T06:40:40;232.35;;;104.95;;
63818;SDS011;49970;54.976;73.248;2023-02-02T06:43:11;236.98;;;108.45;;
63818;SDS011;49970;54.976;73.248;2023-02-02T06:45:40;251.65;;;114.55;;
63818;SDS011;49970;54.976;73.248;2023-02-02T06:48:06;252.57;;;115.45;;
63818;SDS011;49970;54.976;73.248;2023-02-02T06:50:36;260.08;;;118.28;;
63818;SDS011;49970;54.976;73.248;2023-02-02T06:53:07;245.93;;;115.88;;
63818;SDS011;49970;54.976;73.248;2023-02-02T06:55:43;338.85;;;137.65;;
63818;SDS011;49970;54.976;73.248;2023-02-02T06:58:20;192.15;;;79.75;;
63818;SDS011;49970;54.976;73.248;2023-02-02T07:00:46;174.13;;;79.68;;
63818;SDS011;49970;54.976;73.248;2023-02-02T07:03:13;186.65;;;75.22;;
63818;SDS011;49970;54.976;73.248;2023-02-02T07:05:41;194.45;;;81.38;;
63818;SDS011;49970;54.976;73.248;2023-02-02T07:08:12;179.70;;;81.00;;
63818;SDS011;49970;54.976;73.248;2023-02-02T07:10:38;171.55;;;77.10;;
63818;SDS011;49970;54.976;73.248;2023-02-02T07:13:05;177.30;;;77.28;;
63818;SDS011;49970;54.976;73.248;2023-02-02T07:15:32;179.70;;;74.85;;
63818;SDS011;49970;54.976;73.248;2023-02-02T07:17:59;150.02;;;67.35;;
63818;SDS011;49970;54.976;73.248;2023-02-02T07:20:30;150.40;;;68.18;;
63818;SDS011;49970;54.976;73.248;2023-02-02T07:23:06;154.75;;;69.43;;
63818;SDS011;49970;54.976;73.248;2023-02-02T07:25:32;166.30;;;73.07;;
63818;SDS011;49970;54.976;73.248;2023-02-02T07:27:59;140.07;;;67.28;;
63818;SDS011;49970;54.976;73.248;2023-02-02T07:30:35;139.65;;;61.42;;
63818;SDS011;49970;54.976;73.248;2023-02-02T07:33:02;147.43;;;63.85;;
63818;SDS011;49970;54.976;73.248;2023-02-02T07:35:33;137.70;;;62.53;;
63818;SDS011;49970;54.976;73.248;2023-02-02T07:37:59;137.73;;;61.67;;
63818;SDS011;49970;54.976;73.248;2023-02-02T07:40:29;142.43;;;60.83;;
63818;SDS011;49970;54.976;73.248;2023-02-02T07:43:05;119.32;;;55.58;;
63818;SDS011;49970;54.976;73.248;2023-02-02T07:45:32;133.25;;;57.55;;
63818;SDS011;49970;54.976;73.248;2023-02-02T07:47:58;127.93;;;61.28;;
63818;SDS011;49970;54.976;73.248;2023-02-02T07:50:25;128.50;;;56.60;;
63818;SDS011;49970;54.976;73.248;2023-02-02T07:52:53;134.88;;;57.92;;
63818;SDS011;49970;54.976;73.248;2023-02-02T07:55:19;149.93;;;64.43;;
63818;SDS011;49970;54.976;73.248;2023-02-02T07:57:47;173.63;;;78.72;;
63818;SDS011;49970;54.976;73.248;2023-02-02T08:00:13;180.52;;;77.38;;
63818;SDS011;49970;54.976;73.248;2023-02-02T08:02:49;162.43;;;72.47;;
63818;SDS011;49970;54.976;73.248;2023-02-02T08:05:16;150.23;;;68.70;;
63818;SDS011;49970;54.976;73.248;2023-02-02T08:07:42;171.02;;;72.63;;
63818;SDS011;49970;54.976;73.248;2023-02-02T08:10:16;157.30;;;71.47;;
63818;SDS011;49970;54.976;73.248;2023-02-02T08:12:43;152.05;;;67.75;;
63818;SDS011;49970;54.976;73.248;2023-02-02T08:15:09;148.73;;;64.90;;
63818;SDS011;49970;54.976;73.248;2023-02-02T08:17:36;135.25;;;54.47;;
63818;SDS011;49970;54.976;73.248;2023-02-02T08:20:08;125.40;;;56.42;;
63818;SDS011;49970;54.976;73.248;2023-02-02T08:22:37;119.45;;;53.30;;
63818;SDS011;49970;54.976;73.248;2023-02-02T08:25:04;134.07;;;54.00;;
63818;SDS011;49970;54.976;73.248;2023-02-02T08:27:30;120.55;;;48.83;;
63818;SDS011;49970;54.976;73.248;2023-02-02T08:29:58;131.05;;;56.53;;
63818;SDS011;49970;54.976;73.248;2023-02-02T08:32:34;108.07;;;47.00;;
63818;SDS011;49970;54.976;73.248;2023-02-02T08:35:01;120.03;;;54.13;;
63818;SDS011;49970;54.976;73.248;2023-02-02T08:37:32;129.52;;;52.60;;
63818;SDS011;49970;54.976;73.248;2023-02-02T08:39:58;115.18;;;51.22;;
63818;SDS011;49970;54.976;73.248;2023-02-02T08:42:25;149.38;;;57.97;;
63818;SDS011;49970;54.976;73.248;2023-02-02T08:45:02;164.45;;;70.55;;
63818;SDS011;49970;54.976;73.248;2023-02-02T08:47:38;195.98;;;80.22;;
63818;SDS011;49970;54.976;73.248;2023-02-02T08:50:09;170.88;;;73.43;;
63818;SDS011;49970;54.976;73.248;2023-02-02T08:52:36;135.98;;;55.58;;
63818;SDS011;49970;54.976;73.248;2023-02-02T08:55:02;135.73;;;50.75;;
63818;SDS011;49970;54.976;73.248;2023-02-02T08:57:39;115.20;;;51.10;;
63818;SDS011;49970;54.976;73.248;2023-02-02T09:00:10;112.75;;;53.30;;
63818;SDS011;49970;54.976;73.248;2023-02-02T09:02:50;112.50;;;46.72;;
63818;SDS011;49970;54.976;73.248;2023-02-02T09:05:27;112.35;;;53.55;;
63818;SDS011;49970;54.976;73.248;2023-02-02T09:07:53;140.27;;;61.20;;
63818;SDS011;49970;54.976;73.248;2023-02-02T09:10:19;167.60;;;70.78;;
63818;SDS011;49970;54.976;73.248;2023-02-02T09:12:50;203.75;;;84.57;;
63818;SDS011;49970;54.976;73.248;2023-02-02T09:15:26;201.75;;;83.82;;
63818;SDS011;49970;54.976;73.248;2023-02-02T09:17:52;233.15;;;106.40;;
63818;SDS011;49970;54.976;73.248;2023-02-02T09:20:19;241.10;;;109.20;;
63818;SDS011;49970;54.976;73.248;2023-02-02T09:22:45;264.08;;;115.63;;
63818;SDS011;49970;54.976;73.248;2023-02-02T09:25:11;285.67;;;123.72;;
63818;SDS011;49970;54.976;73.248;2023-02-02T09:27:48;288.05;;;128.82;;
63818;SDS011;49970;54.976;73.248;2023-02-02T09:30:14;304.75;;;123.13;;
63818;SDS011;49970;54.976;73.248;2023-02-02T09:32:40;318.25;;;127.97;;
63818;SDS011;49970;54.976;73.248;2023-02-02T09:35:07;296.48;;;127.28;;
63818;SDS011;49970;54.976;73.248;2023-02-02T09:37:43;299.98;;;130.38;;
63818;SDS011;49970;54.976;73.248;2023-02-02T09:40:13;286.05;;;136.80;;
63818;SDS011;49970;54.976;73.248;2023-02-02T09:42:47;300.48;;;139.00;;
63818;SDS011;49970;54.976;73.248;2023-02-02T09:45:46;280.98;;;131.15;;
63818;SDS011;49970;54.976;73.248;2023-02-02T09:50:53;294.33;;;129.90;;
63818;SDS011;49970;54.976;73.248;2023-02-02T09:56:31;263.70;;;118.55;;
63818;SDS011;49970;54.976;73.248;2023-02-02T09:59:03;262.42;;;107.93;;
63818;SDS011;49970;54.976;73.248;2023-02-02T10:01:35;250.60;;;108.40;;
63818;SDS011;49970;54.976;73.248;2023-02-02T10:06:59;239.27;;;105.32;;
63818;SDS011;49970;54.976;73.248;2023-02-02T10:09:36;235.60;;;109.75;;
63818;SDS011;49970;54.976;73.248;2023-02-02T10:12:31;243.45;;;107.50;;
63818;SDS011;49970;54.976;73.248;2023-02-02T10:20:45;222.43;;;85.57;;
63818;SDS011;49970;54.976;73.248;2023-02-02T10:26:06;189.35;;;78.32;;
63818;SDS011;49970;54.976;73.248;2023-02-02T10:29:18;196.75;;;79.30;;
63818;SDS011;49970;54.976;73.248;2023-02-02T10:40:06;211.98;;;79.95;;
63818;SDS011;49970;54.976;73.248;2023-02-02T10:45:53;189.57;;;65.70;;
63818;SDS011;49970;54.976;73.248;2023-02-02T10:48:21;183.40;;;68.82;;
63818;SDS011;49970;54.976;73.248;2023-02-02T10:50:55;186.63;;;68.68;;
63818;SDS011;49970;54.976;73.248;2023-02-02T10:53:27;181.85;;;69.05;;
63818;SDS011;49970;54.976;73.248;2023-02-02T10:56:01;166.68;;;65.30;;
63818;SDS011;49970;54.976;73.248;2023-02-02T10:58:34;163.32;;;63.10;;
63818;SDS011;49970;54.976;73.248;2023-02-02T11:01:22;160.65;;;56.58;;
63818;SDS011;49970;54.976;73.248;2023-02-02T11:03:48;138.80;;;53.45;;
63818;SDS011;49970;54.976;73.248;2023-02-02T11:06:39;135.80;;;52.33;;
63818;SDS011;49970;54.976;73.248;2023-02-02T11:09:22;141.52;;;54.42;;
63818;SDS011;49970;54.976;73.248;2023-02-02T11:12:08;127.28;;;52.97;;
63818;SDS011;49970;54.976;73.248;2023-02-02T11:15:04;127.50;;;51.45;;
63818;SDS011;49970;54.976;73.248;2023-02-02T11:17:32;128.48;;;52.58;;
63818;SDS011;49970;54.976;73.248;2023-02-02T11:19:59;144.40;;;56.00;;
63818;SDS011;49970;54.976;73.248;2023-02-02T11:22:33;146.85;;;58.80;;
63818;SDS011;49970;54.976;73.248;2023-02-02T11:25:05;134.88;;;56.90;;
63818;SDS011;49970;54.976;73.248;2023-02-02T11:28:19;150.68;;;55.60;;
63818;SDS011;49970;54.976;73.248;2023-02-02T11:30:54;145.70;;;55.90;;
63818;SDS011;49970;54.976;73.248;2023-02-02T11:35:54;130.57;;;51.30;;
63818;SDS011;49970;54.976;73.248;2023-02-02T11:38:29;122.25;;;49.50;;
63818;SDS011;49970;54.976;73.248;2023-02-02T11:41:03;132.60;;;47.35;;
63818;SDS011;49970;54.976;73.248;2023-02-02T11:46:39;117.05;;;47.97;;
63818;SDS011;49970;54.976;73.248;2023-02-02T11:51:37;113.30;;;47.83;;
63818;SDS011;49970;54.976;73.248;2023-02-02T11:54:14;109.78;;;47.03;;
63818;SDS011;49970;54.976;73.248;2023-02-02T11:56:52;129.32;;;51.00;;
63818;SDS011;49970;54.976;73.248;2023-02-02T12:05:40;156.32;;;58.20;;
63818;SDS011;49970;54.976;73.248;2023-02-02T12:07:44;149.13;;;57.25;;
63818;SDS011;49970;54.976;73.248;2023-02-02T12:18:35;147.13;;;58.85;;
63818;SDS011;49970;54.976;73.248;2023-02-02T12:21:13;151.20;;;61.83;;
63818;SDS011;49970;54.976;73.248;2023-02-02T12:23:57;153.90;;;64.57;;
63818;SDS011;49970;54.976;73.248;2023-02-02T12:26:30;153.65;;;65.47;;
63818;SDS011;49970;54.976;73.248;2023-02-02T12:29:09;158.13;;;61.08;;
63818;SDS011;49970;54.976;73.248;2023-02-02T12:41:18;138.75;;;57.15;;
63818;SDS011;49970;54.976;73.248;2023-02-02T12:44:08;148.27;;;55.30;;
63818;SDS011;49970;54.976;73.248;2023-02-02T12:59:11;129.75;;;51.88;;
63818;SDS011;49970;54.976;73.248;2023-02-02T13:10:51;141.70;;;52.92;;
63818;SDS011;49970;54.976;73.248;2023-02-02T13:13:28;126.38;;;54.35;;
63818;SDS011;49970;54.976;73.248;2023-02-02T13:15:59;143.32;;;56.38;;
63818;SDS011;49970;54.976;73.248;2023-02-02T13:18:45;155.18;;;58.22;;
63818;SDS011;49970;54.976;73.248;2023-02-02T13:21:26;133.20;;;56.88;;
63818;SDS011;49970;54.976;73.248;2023-02-02T13:24:07;191.57;;;75.63;;
63818;SDS011;49970;54.976;73.248;2023-02-02T13:29:28;217.73;;;71.68;;
63818;SDS011;49970;54.976;73.248;2023-02-02T13:32:05;209.52;;;76.55;;
63818;SDS011;49970;54.976;73.248;2023-02-02T13:34:56;197.65;;;78.10;;
63818;SDS011;49970;54.976;73.248;2023-02-02T13:40:33;197.10;;;78.95;;
63818;SDS011;49970;54.976;73.248;2023-02-02T13:43:23;203.07;;;77.10;;
63818;SDS011;49970;54.976;73.248;2023-02-02T13:46:10;202.57;;;75.72;;
63818;SDS011;49970;54.976;73.248;2023-02-02T13:58:13;247.50;;;101.47;;
63818;SDS011;49970;54.976;73.248;2023-02-02T14:03:40;198.35;;;79.88;;
63818;SDS011;49970;54.976;73.248;2023-02-02T14:06:21;211.98;;;89.95;;
63818;SDS011;49970;54.976;73.248;2023-02-02T14:08:54;243.02;;;100.05;;
63818;SDS011;49970;54.976;73.248;2023-02-02T14:11:38;212.32;;;93.47;;
63818;SDS011;49970;54.976;73.248;2023-02-02T14:14:07;202.38;;;88.20;;
63818;SDS011;49970;54.976;73.248;2023-02-02T14:19:49;342.05;;;156.70;;
63818;SDS011;49970;54.976;73.248;2023-02-02T14:22:37;362.55;;;160.38;;
63818;SDS011;49970;54.976;73.248;2023-02-02T14:28:02;416.92;;;185.52;;
63818;SDS011;49970;54.976;73.248;2023-02-02T14:30:42;371.45;;;165.90;;
63818;SDS011;49970;54.976;73.248;2023-02-02T14:35:55;399.90;;;189.15;;
63818;SDS011;49970;54.976;73.248;2023-02-02T14:38:29;448.73;;;231.35;;
63818;SDS011;49970;54.976;73.248;2023-02-02T14:44:28;413.05;;;197.50;;
63818;SDS011;49970;54.976;73.248;2023-02-02T14:46:55;411.20;;;192.75;;
63818;SDS011;49970;54.976;73.248;2023-02-02T14:49:22;462.38;;;224.40;;
63818;SDS011;49970;54.976;73.248;2023-02-02T14:51:52;467.83;;;237.38;;
63818;SDS011;49970;54.976;73.248;2023-02-02T14:54:32;477.63;;;242.68;;
63818;SDS011;49970;54.976;73.248;2023-02-02T14:57:16;495.88;;;251.55;;
63818;SDS011;49970;54.976;73.248;2023-02-02T14:59:47;470.38;;;238.85;;
63818;SDS011;49970;54.976;73.248;2023-02-02T15:04:52;498.05;;;263.05;;
63818;SDS011;49970;54.976;73.248;2023-02-02T15:07:53;462.83;;;237.32;;
63818;SDS011;49970;54.976;73.248;2023-02-02T15:13:22;501.75;;;271.02;;
63818;SDS011;49970;54.976;73.248;2023-02-02T15:18:43;492.67;;;271.10;;
63818;SDS011;49970;54.976;73.248;2023-02-02T15:21:18;495.33;;;265.33;;
63818;SDS011;49970;54.976;73.248;2023-02-02T15:23:49;485.60;;;262.70;;
63818;SDS011;49970;54.976;73.248;2023-02-02T15:26:24;497.50;;;267.80;;
63818;SDS011;49970;54.976;73.248;2023-02-02T15:28:58;486.90;;;259.38;;
63818;SDS011;49970;54.976;73.248;2023-02-02T15:31:32;489.02;;;262.05;;
63818;SDS011;49970;54.976;73.248;2023-02-02T15:34:36;490.48;;;255.40;;
63818;SDS011;49970;54.976;73.248;2023-02-02T15:37:12;478.88;;;259.45;;
63818;SDS011;49970;54.976;73.248;2023-02-02T15:39:51;470.83;;;252.50;;
63818;SDS011;49970;54.976;73.248;2023-02-02T15:42:41;476.63;;;252.15;;
63818;SDS011;49970;54.976;73.248;2023-02-02T15:45:29;459.00;;;238.80;;
63818;SDS011;49970;54.976;73.248;2023-02-02T15:48:14;482.20;;;246.93;;
63818;SDS011;49970;54.976;73.248;2023-02-02T15:50:59;483.38;;;245.00;;
63818;SDS011;49970;54.976;73.248;2023-02-02T15:58:49;502.23;;;268.90;;
63818;SDS011;49970;54.976;73.248;2023-02-02T16:01:29;493.30;;;258.55;;
63818;SDS011;49970;54.976;73.248;2023-02-02T16:04:19;491.27;;;257.13;;
63818;SDS011;49970;54.976;73.248;2023-02-02T16:06:49;458.00;;;232.25;;
63818;SDS011;49970;54.976;73.248;2023-02-02T16:09:25;448.13;;;238.50;;
63818;SDS011;49970;54.976;73.248;2023-02-02T16:12:02;452.45;;;227.23;;
63818;SDS011;49970;54.976;73.248;2023-02-02T16:14:31;456.90;;;231.82;;
63818;SDS011;49970;54.976;73.248;2023-02-02T16:17:09;447.00;;;228.35;;
63818;SDS011;49970;54.976;73.248;2023-02-02T16:19:46;451.45;;;224.77;;
63818;SDS011;49970;54.976;73.248;2023-02-02T16:22:19;443.67;;;225.32;;
63818;SDS011;49970;54.976;73.248;2023-02-02T16:24:53;458.92;;;227.13;;
63818;SDS011;49970;54.976;73.248;2023-02-02T16:27:24;422.60;;;209.73;;
63818;SDS011;49970;54.976;73.248;2023-02-02T16:29:52;418.27;;;200.40;;
63818;SDS011;49970;54.976;73.248;2023-02-02T16:34:59;401.77;;;189.25;;
63818;SDS011;49970;54.976;73.248;2023-02-02T16:37:30;376.27;;;178.82;;
63818;SDS011;49970;54.976;73.248;2023-02-02T16:43:54;418.50;;;196.45;;
63818;SDS011;49970;54.976;73.248;2023-02-02T16:45:54;438.15;;;219.65;;
63818;SDS011;49970;54.976;73.248;2023-02-02T16:51:03;421.77;;;204.63;;
63818;SDS011;49970;54.976;73.248;2023-02-02T16:53:58;421.08;;;205.30;;
63818;SDS011;49970;54.976;73.248;2023-02-02T16:56:58;427.38;;;212.25;;
63818;SDS011;49970;54.976;73.248;2023-02-02T16:59:26;416.45;;;204.23;;
63818;SDS011;49970;54.976;73.248;2023-02-02T17:02:04;416.45;;;198.40;;
63818;SDS011;49970;54.976;73.248;2023-02-02T17:04:46;415.77;;;194.37;;
63818;SDS011;49970;54.976;73.248;2023-02-02T17:07:14;413.20;;;195.68;;
63818;SDS011;49970;54.976;73.248;2023-02-02T17:09:50;407.05;;;193.55;;
63818;SDS011;49970;54.976;73.248;2023-02-02T17:12:44;366.42;;;173.43;;